Página principal
METAR-TAF:

METAR-TAF

Aeroportos :

Aeroporto Internacional de Seicheles

Victoria, Mahé, Seychelles

latitude: 04-40S, longitude: 055-31E, altura: 3 m

Observação actual do tempo

O boletim foi feito há 55 minutos, às 02:00 UTC
Vento 3 kt de su-sudoeste
Temperatura 25°C
Humidade 83%
Pressão 1010 hPa
Visibilidade 10 km ou mais
Poucas nuvensa uma altura de 2400 ft

METAR: FSIA 150200Z 20003KT 9999 FEW024 25/22 Q1010 NOSIG

Hora: 06:55 (02:55 UTC)

Previsão

O boletim foi feito há 3 horas e 48 minutos, às 23:07 UTC
Previsão válida de 15 às 00 UTC a 15 às 24 UTC
Vento 5 kt de oes-sudoeste
Visibilidade 10 km ou mais
Poucas nuvensa uma altura de 2800 ft

TAF: FSIA 142307Z 1500/1524 24005KT 9999 FEW028

Observações e previsões do tempo de mais de 4000 aeroportos (mensagens METAR e TAF).

As estações disponíveis são os pontos amarelos e vermelhos sobre o mapa.

Mova o rato sobre o mapa para ver o nome da estação.

Depois clique no ponto para visualizar as observações e previsões meteorológicas.

Para alterar o mapa : clique nos botões verdes com uma cruz preta para aumentar o zoom; no botão verde com uma pitada de zoom; ou nas setas verdes para mapas adjacentes.


METAR-TAF: